Time;durP1;ratioP1;P1;durP2;ratioP2;P2;SDS_P1;SDS_P2;PMS_P1;PMS_P2;Temp;Humidity;BMP_temperature;BMP_pressure;BME280_temperature;BME280_humidity;BME280_pressure;Samples;Min_cycle;Max_cycle;Signal;HPM_P1;HPM_P2
2021/04/25 00:00:49;;;;;;;12.70;9.77;;;9.00;71.40;;;;;;5034367;28;20044;-57
2021/04/25 00:03:15;;;;;;;15.40;10.32;;;9.00;71.60;;;;;;5031578;28;20688;-59
2021/04/25 00:05:40;;;;;;;14.82;9.80;;;9.00;71.90;;;;;;5032994;28;20025;-60
2021/04/25 00:08:07;;;;;;;14.10;10.73;;;9.00;72.40;;;;;;5011129;28;20129;-58
2021/04/25 00:10:32;;;;;;;14.70;10.02;;;9.00;72.50;;;;;;5031413;28;20037;-58
2021/04/25 00:12:58;;;;;;;20.75;11.25;;;9.00;73.40;;;;;;5032787;28;20029;-57
2021/04/25 00:15:25;;;;;;;18.27;10.13;;;9.10;73.90;;;;;;5031685;28;20040;-58
2021/04/25 00:17:51;;;;;;;15.45;10.20;;;9.00;74.50;;;;;;5034397;28;20021;-58
2021/04/25 00:20:18;;;;;;;14.57;9.52;;;8.80;72.90;;;;;;5015176;28;20042;-58
2021/04/25 00:22:45;;;;;;;16.30;10.50;;;8.90;72.90;;;;;;5034050;28;20382;-59
2021/04/25 00:25:12;;;;;;;19.48;11.32;;;8.90;72.90;;;;;;5031988;28;20033;-59
2021/04/25 00:27:39;;;;;;;16.70;11.13;;;8.90;72.30;;;;;;5033745;28;20117;-55
2021/04/25 00:30:07;;;;;;;19.27;9.93;;;8.60;72.40;;;;;;5031979;28;20061;-59
2021/04/25 00:32:33;;;;;;;17.42;10.18;;;8.60;71.90;;;;;;5033551;28;20044;-59
2021/04/25 00:34:59;;;;;;;15.18;9.30;;;8.50;72.30;;;;;;5033131;28;20038;-58
2021/04/25 00:37:24;;;;;;;16.50;9.45;;;8.50;72.50;;;;;;5033119;28;20086;-59
2021/04/25 00:39:50;;;;;;;15.32;10.40;;;8.50;72.70;;;;;;5032070;28;20108;-58
2021/04/25 00:42:16;;;;;;;15.10;9.05;;;8.40;72.40;;;;;;5033343;28;20033;-61
2021/04/25 00:44:46;;;;;;;15.90;9.90;;;8.00;73.30;;;;;;5030688;28;20044;-53
2021/04/25 00:47:12;;;;;;;15.10;8.00;;;8.00;73.20;;;;;;5033491;28;20048;-57
2021/04/25 00:49:38;;;;;;;13.02;7.32;;;8.00;73.30;;;;;;5031174;28;20023;-58
2021/04/25 00:52:04;;;;;;;13.15;6.72;;;8.10;72.60;;;;;;5035155;28;20034;-59
2021/04/25 00:54:31;;;;;;;12.53;7.43;;;8.00;72.40;;;;;;5032315;28;20086;-59
2021/04/25 00:56:58;;;;;;;13.20;7.20;;;8.10;71.90;;;;;;5032003;28;20030;-57
2021/04/25 00:59:26;;;;;;;8.23;6.95;;;7.90;72.00;;;;;;5031694;28;20032;-56
2021/04/25 01:01:52;;;;;;;14.48;7.68;;;7.70;73.40;;;;;;5032306;28;20127;-59
2021/04/25 01:04:17;;;;;;;13.18;7.00;;;7.90;72.70;;;;;;5028257;28;20149;-58
2021/04/25 01:06:43;;;;;;;10.82;6.80;;;7.90;72.70;;;;;;5031778;28;20052;-57
2021/04/25 01:09:09;;;;;;;10.73;6.45;;;8.00;72.10;;;;;;5016847;28;20400;-55
2021/04/25 01:11:35;;;;;;;11.98;6.53;;;7.90;72.70;;;;;;5031989;28;20071;-59
2021/04/25 01:14:00;;;;;;;13.65;6.65;;;7.70;72.60;;;;;;5031002;28;20021;-60
2021/04/25 01:16:28;;;;;;;11.68;6.35;;;7.60;72.90;;;;;;5031736;28;20029;-61
2021/04/25 01:18:54;;;;;;;8.63;5.78;;;7.40;73.50;;;;;;5033740;28;20123;-59
2021/04/25 01:21:20;;;;;;;11.60;5.75;;;7.50;73.80;;;;;;5012792;28;20030;-60
2021/04/25 01:23:45;;;;;;;8.35;5.05;;;7.60;72.90;;;;;;5025833;28;20091;-57
2021/04/25 01:26:11;;;;;;;11.15;5.68;;;7.60;73.50;;;;;;5030572;28;20087;-57
2021/04/25 01:28:37;;;;;;;11.68;6.82;;;7.40;73.80;;;;;;5028028;28;20038;-60
2021/04/25 01:31:03;;;;;;;9.38;6.18;;;7.50;74.10;;;;;;5013561;28;20038;-58
2021/04/25 01:33:29;;;;;;;9.07;5.85;;;7.50;73.70;;;;;;5024298;28;20046;-59
2021/04/25 01:35:55;;;;;;;10.95;5.40;;;7.40;73.90;;;;;;5011621;28;20049;-60
2021/04/25 01:38:21;;;;;;;9.15;5.20;;;7.50;73.20;;;;;;5019140;28;20095;-59
2021/04/25 01:40:47;;;;;;;8.27;4.95;;;7.50;73.20;;;;;;5011890;28;20050;-59
2021/04/25 01:43:13;;;;;;;12.38;5.70;;;7.40;73.70;;;;;;5025624;28;20069;-58
2021/04/25 01:45:39;;;;;;;10.15;5.18;;;7.20;74.70;;;;;;5031745;28;20446;-58
2021/04/25 01:48:06;;;;;;;11.02;5.03;;;7.10;74.90;;;;;;5031117;28;20477;-59
2021/04/25 01:50:32;;;;;;;12.45;4.97;;;7.00;74.60;;;;;;5032325;28;20026;-57
2021/04/25 01:52:59;;;;;;;10.00;4.50;;;7.00;74.70;;;;;;5035483;28;20028;-57
2021/04/25 01:55:26;;;;;;;7.32;4.75;;;6.70;75.90;;;;;;5032861;28;20045;-58
2021/04/25 01:57:52;;;;;;;9.57;4.40;;;6.90;75.70;;;;;;5032152;28;20060;-59
2021/04/25 02:00:33;;;;;;;9.43;4.78;;;6.90;75.70;;;;;;5030989;28;20113;-55
2021/04/25 02:02:59;;;;;;;8.02;4.75;;;6.80;75.80;;;;;;5030005;28;20480;-56
2021/04/25 02:05:25;;;;;;;9.85;5.15;;;6.40;77.10;;;;;;5030926;28;20140;-56
2021/04/25 02:07:52;;;;;;;7.78;4.20;;;6.50;76.80;;;;;;5032881;28;20128;-55
2021/04/25 02:10:18;;;;;;;9.93;4.90;;;6.30;77.20;;;;;;5030672;28;20049;-59
2021/04/25 02:12:44;;;;;;;13.55;4.90;;;6.20;78.30;;;;;;5033238;28;20042;-57
2021/04/25 02:15:11;;;;;;;10.45;5.20;;;6.00;78.70;;;;;;5022446;28;20147;-59
2021/04/25 02:17:37;;;;;;;5.95;4.38;;;5.90;79.40;;;;;;5015107;28;20030;-58
2021/04/25 02:20:05;;;;;;;11.55;4.53;;;6.20;78.50;;;;;;5039501;28;20040;-56
2021/04/25 02:22:30;;;;;;;8.05;4.68;;;6.20;78.10;;;;;;5015194;28;20513;-57
2021/04/25 02:24:56;;;;;;;10.68;5.22;;;6.00;78.40;;;;;;5029305;28;20029;-58
2021/04/25 02:27:22;;;;;;;11.55;4.85;;;5.80;79.30;;;;;;5023078;28;20045;-57
2021/04/25 02:29:47;;;;;;;8.77;4.63;;;5.70;80.00;;;;;;5027840;28;20096;-57
2021/04/25 02:32:13;;;;;;;8.35;4.50;;;6.00;79.00;;;;;;5017777;28;20137;-58
2021/04/25 02:34:39;;;;;;;9.27;5.25;;;5.90;79.00;;;;;;5026712;28;20100;-55
2021/04/25 02:37:05;;;;;;;8.73;4.78;;;6.10;78.50;;;;;;5013239;28;20456;-58
2021/04/25 02:39:30;;;;;;;11.70;5.15;;;5.80;79.10;;;;;;5026968;28;20026;-58
2021/04/25 02:41:56;;;;;;;10.05;5.40;;;5.80;79.70;;;;;;5014587;28;20045;-59
2021/04/25 02:44:21;;;;;;;14.77;5.53;;;5.90;79.10;;;;;;5028511;28;20069;-57
2021/04/25 02:46:47;;;;;;;12.27;6.15;;;5.80;78.90;;;;;;5014908;28;20117;-58
2021/04/25 02:49:13;;;;;;;8.13;5.20;;;5.90;79.00;;;;;;5034886;28;20037;-58
2021/04/25 02:51:39;;;;;;;9.18;5.10;;;5.80;79.40;;;;;;5016748;28;20065;-58
2021/04/25 02:54:04;;;;;;;6.57;4.68;;;5.80;79.40;;;;;;5041602;28;20082;-57
2021/04/25 02:56:30;;;;;;;7.65;4.65;;;5.70;80.00;;;;;;5025927;28;20453;-57
2021/04/25 02:58:56;;;;;;;9.13;4.88;;;5.50;80.70;;;;;;5025931;28;20025;-58
2021/04/25 03:01:22;;;;;;;10.48;5.35;;;5.60;80.30;;;;;;5028961;28;20111;-58
2021/04/25 03:03:48;;;;;;;9.23;5.88;;;5.60;80.40;;;;;;5022270;28;20064;-59
2021/04/25 03:06:13;;;;;;;8.70;5.53;;;5.30;80.80;;;;;;5033634;28;20456;-60
2021/04/25 03:08:39;;;;;;;9.18;5.80;;;5.20;81.40;;;;;;5018788;28;20401;-59
2021/04/25 03:11:04;;;;;;;9.13;5.68;;;5.20;82.00;;;;;;5037928;28;20482;-57
2021/04/25 03:13:30;;;;;;;9.20;6.03;;;5.40;81.10;;;;;;5014773;28;20110;-59
2021/04/25 03:15:56;;;;;;;11.88;5.93;;;5.50;80.80;;;;;;5036971;28;20116;-55
2021/04/25 03:18:21;;;;;;;7.70;6.03;;;5.50;80.30;;;;;;5014116;28;20041;-58
2021/04/25 03:20:47;;;;;;;11.32;6.22;;;5.60;80.00;;;;;;5043242;28;20517;-59
2021/04/25 03:23:12;;;;;;;8.57;5.40;;;5.70;80.00;;;;;;5023700;28;20033;-55
2021/04/25 03:25:38;;;;;;;10.25;5.18;;;5.70;79.70;;;;;;5025092;28;20065;-57
2021/04/25 03:28:04;;;;;;;10.68;6.28;;;5.80;79.30;;;;;;5023008;28;20026;-56
2021/04/25 03:30:29;;;;;;;9.23;5.78;;;5.80;78.80;;;;;;5015134;28;20490;-55
2021/04/25 03:32:55;;;;;;;10.07;5.90;;;5.70;79.60;;;;;;5019953;28;20044;-58
2021/04/25 03:35:21;;;;;;;11.35;5.90;;;5.80;79.30;;;;;;5033644;28;20125;-56
2021/04/25 03:37:47;;;;;;;9.68;6.30;;;5.90;79.20;;;;;;5015636;28;20026;-60
2021/04/25 03:40:16;;;;;;;13.77;5.80;;;5.80;79.30;;;;;;5015138;28;20044;-58
2021/04/25 03:42:42;;;;;;;15.35;7.45;;;5.70;79.70;;;;;;5012291;28;20489;-58
2021/04/25 03:45:15;;;;;;;12.75;7.38;;;5.70;79.80;;;;;;5015903;28;20032;-56
2021/04/25 03:47:43;;;;;;;8.15;5.28;;;5.80;80.00;;;;;;5012182;28;20092;-56
2021/04/25 03:50:09;;;;;;;12.18;5.35;;;5.80;80.10;;;;;;5015621;28;20033;-54
2021/04/25 03:52:35;;;;;;;8.35;5.60;;;5.90;79.60;;;;;;5023609;28;20029;-56
2021/04/25 03:55:01;;;;;;;11.18;5.32;;;5.90;79.40;;;;;;5027241;28;20033;-57
2021/04/25 03:57:26;;;;;;;10.30;5.57;;;5.70;80.20;;;;;;5013562;28;20069;-58
2021/04/25 04:00:21;;;;;;;11.27;6.60;;;5.70;80.50;;;;;;5023833;28;20029;-56
2021/04/25 04:02:47;;;;;;;8.43;5.13;;;5.70;80.50;;;;;;5013702;28;20092;-58
2021/04/25 04:05:13;;;;;;;9.27;5.10;;;5.60;80.80;;;;;;5031650;28;20384;-58
2021/04/25 04:07:39;;;;;;;9.35;5.63;;;5.60;81.00;;;;;;5013337;28;20061;-59
2021/04/25 04:10:06;;;;;;;10.20;5.07;;;5.50;81.40;;;;;;5031256;28;20025;-58
2021/04/25 04:12:32;;;;;;;10.82;5.80;;;5.50;81.30;;;;;;5013904;28;20042;-57
2021/04/25 04:14:58;;;;;;;10.77;5.40;;;5.40;82.50;;;;;;5019128;28;20032;-58
2021/04/25 04:17:23;;;;;;;10.63;5.40;;;5.50;82.10;;;;;;5015414;28;20053;-60
2021/04/25 04:19:49;;;;;;;10.93;4.78;;;5.60;81.40;;;;;;5025329;28;20052;-56
2021/04/25 04:22:14;;;;;;;9.38;5.20;;;5.60;81.10;;;;;;5019328;28;20089;-60
2021/04/25 04:24:41;;;;;;;8.82;4.47;;;5.60;81.50;;;;;;5021934;28;20029;-59
2021/04/25 04:27:06;;;;;;;9.73;5.88;;;5.50;81.70;;;;;;5029688;28;20030;-59
2021/04/25 04:29:33;;;;;;;15.70;5.53;;;5.40;81.90;;;;;;5012524;28;20026;-58
2021/04/25 04:31:59;;;;;;;7.55;4.80;;;5.30;83.00;;;;;;5026766;28;20038;-58
2021/04/25 04:34:27;;;;;;;9.65;5.18;;;5.30;82.40;;;;;;5013154;28;20100;-56
2021/04/25 04:36:54;;;;;;;10.13;5.18;;;5.20;83.80;;;;;;5020973;28;20038;-61
2021/04/25 04:39:20;;;;;;;12.88;5.25;;;5.30;83.00;;;;;;5013142;28;20022;-56
2021/04/25 04:41:46;;;;;;;8.02;4.68;;;5.30;82.90;;;;;;5027597;28;20109;-58
2021/04/25 04:44:11;;;;;;;9.57;5.10;;;5.40;82.70;;;;;;5025480;28;20061;-59
2021/04/25 04:46:37;;;;;;;8.07;4.85;;;5.30;82.80;;;;;;5031459;28;20492;-59
2021/04/25 04:49:03;;;;;;;9.00;4.90;;;5.20;83.30;;;;;;5020723;28;20113;-59
2021/04/25 04:51:28;;;;;;;9.20;5.57;;;5.30;83.30;;;;;;5027280;28;20033;-56
2021/04/25 04:53:54;;;;;;;9.80;5.10;;;5.30;83.30;;;;;;5026021;28;20398;-58
2021/04/25 04:56:20;;;;;;;13.30;6.40;;;5.20;84.00;;;;;;5024291;28;20064;-58
2021/04/25 04:58:45;;;;;;;11.73;5.57;;;5.20;84.00;;;;;;5012549;28;20311;-55
2021/04/25 05:01:11;;;;;;;12.30;5.95;;;5.20;84.40;;;;;;5031556;28;20037;-58
2021/04/25 05:03:36;;;;;;;14.02;5.28;;;5.20;84.60;;;;;;5019005;28;20034;-58
2021/04/25 05:06:02;;;;;;;11.95;5.80;;;5.20;84.40;;;;;;5027933;28;20043;-59
2021/04/25 05:08:28;;;;;;;9.18;5.40;;;5.10;84.90;;;;;;5036730;28;20033;-58
2021/04/25 05:10:53;;;;;;;10.90;5.80;;;5.10;85.00;;;;;;5019520;28;20112;-58
2021/04/25 05:13:19;;;;;;;10.57;5.60;;;5.20;84.90;;;;;;5020026;28;20030;-58
2021/04/25 05:15:45;;;;;;;14.48;6.03;;;5.10;85.20;;;;;;5024491;28;20047;-58
2021/04/25 05:18:11;;;;;;;13.15;6.55;;;5.20;84.90;;;;;;5031177;28;20124;-59
2021/04/25 05:20:38;;;;;;;13.75;5.88;;;5.10;85.20;;;;;;5017120;28;20108;-60
2021/04/25 05:23:03;;;;;;;14.98;6.55;;;5.00;86.10;;;;;;5034282;28;20478;-59
2021/04/25 05:25:29;;;;;;;10.02;5.43;;;5.10;85.90;;;;;;5024468;28;20101;-58
2021/04/25 05:27:55;;;;;;;11.02;6.10;;;5.30;85.50;;;;;;5035758;28;20346;-55
2021/04/25 05:30:21;;;;;;;13.80;6.70;;;5.40;85.20;;;;;;5030954;28;20033;-58
2021/04/25 05:32:47;;;;;;;14.65;6.20;;;5.30;85.40;;;;;;5041257;28;20052;-59
2021/04/25 05:35:13;;;;;;;17.88;7.40;;;5.20;85.90;;;;;;5012369;28;20454;-57
2021/04/25 05:37:40;;;;;;;14.82;6.93;;;5.00;86.90;;;;;;5013236;28;20113;-57
2021/04/25 05:40:07;;;;;;;17.50;6.38;;;5.00;86.90;;;;;;5012576;28;20026;-60
2021/04/25 05:42:32;;;;;;;16.40;7.40;;;4.70;88.20;;;;;;5012186;28;20188;-57
2021/04/25 05:44:58;;;;;;;14.10;7.15;;;4.70;88.40;;;;;;5012144;28;20102;-58
2021/04/25 05:47:24;;;;;;;18.08;6.93;;;4.70;88.60;;;;;;5026968;28;20033;-59
2021/04/25 05:49:49;;;;;;;15.45;6.97;;;4.90;87.80;;;;;;5019285;28;20503;-60
2021/04/25 05:52:15;;;;;;;16.42;8.13;;;4.50;89.20;;;;;;5032125;28;20022;-59
2021/04/25 05:54:40;;;;;;;12.40;7.53;;;4.60;88.90;;;;;;5022725;28;20044;-59
2021/04/25 05:57:08;;;;;;;18.10;7.45;;;4.50;89.10;;;;;;5026768;28;20022;-57
2021/04/25 05:59:35;;;;;;;14.02;7.43;;;4.60;88.80;;;;;;5015875;28;20171;-60
2021/04/25 06:02:02;;;;;;;15.93;7.28;;;4.60;88.70;;;;;;5029627;28;20405;-59
2021/04/25 06:04:27;;;;;;;15.43;7.63;;;4.60;88.70;;;;;;5015756;28;20394;-56
2021/04/25 06:06:53;;;;;;;15.38;7.70;;;4.60;88.90;;;;;;5022883;28;20031;-60
2021/04/25 06:09:18;;;;;;;14.75;6.95;;;4.70;88.50;;;;;;5015659;28;20074;-56
2021/04/25 06:11:44;;;;;;;15.88;8.25;;;4.80;88.30;;;;;;5027945;28;20427;-57
2021/04/25 06:14:09;;;;;;;15.43;8.13;;;4.90;87.60;;;;;;5016340;28;20452;-59
2021/04/25 06:16:35;;;;;;;15.02;7.78;;;4.80;88.00;;;;;;5034118;28;20029;-59
2021/04/25 06:19:01;;;;;;;15.48;7.65;;;4.90;87.80;;;;;;5019627;28;20116;-54
2021/04/25 06:21:27;;;;;;;13.32;8.15;;;5.10;86.90;;;;;;5020576;28;20029;-57
2021/04/25 06:23:53;;;;;;;17.58;7.97;;;5.10;87.30;;;;;;5024190;28;20025;-59
2021/04/25 06:26:19;;;;;;;14.90;7.65;;;5.20;86.70;;;;;;5030676;28;20047;-60
2021/04/25 06:28:44;;;;;;;18.02;8.45;;;5.30;86.10;;;;;;5027814;28;20045;-58
2021/04/25 06:31:10;;;;;;;15.85;8.25;;;5.30;86.30;;;;;;5019347;28;20061;-60
2021/04/25 06:33:35;;;;;;;17.98;8.95;;;5.40;85.70;;;;;;5016163;28;20037;-59
2021/04/25 06:36:01;;;;;;;17.20;7.57;;;5.20;86.60;;;;;;5023571;28;20034;-58
2021/04/25 06:38:26;;;;;;;16.63;8.13;;;5.30;86.50;;;;;;5015741;28;20030;-59
2021/04/25 06:40:52;;;;;;;17.23;9.35;;;5.20;86.80;;;;;;5034054;28;20021;-59
2021/04/25 06:43:18;;;;;;;15.63;8.55;;;5.10;87.30;;;;;;5035196;28;20507;-60
2021/04/25 06:45:46;;;;;;;14.98;8.30;;;5.30;86.20;;;;;;5022911;28;20100;-58
2021/04/25 06:48:11;;;;;;;17.73;8.82;;;5.40;85.90;;;;;;5014728;28;20113;-58
2021/04/25 06:50:37;;;;;;;15.43;8.38;;;5.60;85.60;;;;;;5025559;28;20453;-59
2021/04/25 06:53:02;;;;;;;15.40;8.30;;;5.60;85.30;;;;;;5025554;28;20115;-58
2021/04/25 06:55:28;;;;;;;21.25;8.60;;;5.50;85.40;;;;;;5041964;28;20041;-59
2021/04/25 06:57:54;;;;;;;13.75;8.30;;;5.40;86.10;;;;;;5024956;28;20056;-59
2021/04/25 07:00:22;;;;;;;21.13;8.95;;;5.40;85.70;;;;;;5020571;28;20121;-55
2021/04/25 07:02:48;;;;;;;18.63;9.77;;;5.30;85.30;;;;;;5016521;28;20033;-57
2021/04/25 07:05:14;;;;;;;14.15;8.38;;;5.40;85.40;;;;;;5020396;28;20030;-57
2021/04/25 07:07:40;;;;;;;22.02;9.02;;;5.70;84.70;;;;;;5015921;28;20038;-57
2021/04/25 07:10:08;;;;;;;18.52;8.10;;;5.80;84.20;;;;;;5016191;28;20029;-58
2021/04/25 07:12:34;;;;;;;16.73;8.82;;;5.80;83.90;;;;;;5036234;28;20037;-54
2021/04/25 07:14:59;;;;;;;19.08;7.75;;;5.90;83.70;;;;;;5026976;28;20175;-59
2021/04/25 07:17:25;;;;;;;15.35;8.02;;;6.10;82.90;;;;;;5021483;28;20053;-59
2021/04/25 07:19:51;;;;;;;15.70;8.10;;;6.10;82.30;;;;;;5027794;28;20033;-60
2021/04/25 07:22:17;;;;;;;17.50;8.20;;;6.10;82.20;;;;;;5035471;28;20047;-57
2021/04/25 07:24:43;;;;;;;20.42;9.02;;;6.20;82.10;;;;;;5033314;28;20099;-59
2021/04/25 07:27:09;;;;;;;16.23;8.52;;;6.30;82.10;;;;;;5034178;28;20041;-57
2021/04/25 07:29:35;;;;;;;17.25;8.45;;;6.20;82.60;;;;;;5012673;28;20511;-59
2021/04/25 07:32:03;;;;;;;17.40;8.27;;;6.20;82.50;;;;;;5018685;28;20474;-60
2021/04/25 07:34:29;;;;;;;19.48;8.45;;;6.30;82.30;;;;;;5033860;28;20083;-60
2021/04/25 07:36:54;;;;;;;13.70;7.68;;;6.40;82.10;;;;;;5033052;28;20045;-58
2021/04/25 07:39:20;;;;;;;15.13;8.55;;;6.60;81.70;;;;;;5031716;28;20079;-57
2021/04/25 07:41:47;;;;;;;13.50;7.70;;;6.50;81.10;;;;;;5035892;28;20033;-59
2021/04/25 07:44:12;;;;;;;18.45;8.93;;;6.60;81.60;;;;;;5033317;28;22268;-57
2021/04/25 07:46:38;;;;;;;17.35;9.57;;;6.50;82.10;;;;;;5034833;28;20130;-58
2021/04/25 07:49:04;;;;;;;15.88;7.75;;;6.70;82.10;;;;;;5033747;28;20217;-58
2021/04/25 07:51:30;;;;;;;15.77;8.48;;;6.70;80.30;;;;;;5034327;28;20393;-59
2021/04/25 07:53:58;;;;;;;14.57;8.82;;;6.50;81.10;;;;;;5033436;28;20033;-57
2021/04/25 07:56:23;;;;;;;18.58;8.93;;;6.70;80.30;;;;;;5036127;28;20041;-58
2021/04/25 07:58:50;;;;;;;12.57;8.13;;;6.70;79.80;;;;;;5033490;28;20029;-59
2021/04/25 08:01:15;;;;;;;14.45;8.55;;;6.90;78.80;;;;;;5032274;28;20038;-56
2021/04/25 08:03:41;;;;;;;14.18;8.27;;;6.90;79.30;;;;;;5034287;28;20052;-57
2021/04/25 08:06:07;;;;;;;15.45;7.95;;;6.90;78.60;;;;;;5036802;28;20030;-60
2021/04/25 08:08:32;;;;;;;19.60;8.32;;;6.80;79.60;;;;;;5025330;28;20049;-61
2021/04/25 08:10:58;;;;;;;16.55;7.82;;;7.10;79.00;;;;;;5036814;28;20116;-58
2021/04/25 08:13:24;;;;;;;17.55;8.27;;;7.30;78.50;;;;;;5029816;28;20056;-58
2021/04/25 08:15:49;;;;;;;15.30;8.25;;;7.40;77.20;;;;;;5034734;28;20041;-59
2021/04/25 08:18:15;;;;;;;13.98;7.55;;;7.20;78.00;;;;;;5032462;28;20021;-58
2021/04/25 08:20:41;;;;;;;14.40;8.00;;;7.10;78.20;;;;;;5033992;28;20052;-59
2021/04/25 08:23:07;;;;;;;14.82;8.90;;;7.10;77.60;;;;;;5035574;28;20032;-60
2021/04/25 08:25:32;;;;;;;13.05;7.95;;;7.10;77.30;;;;;;5018719;28;20064;-60
2021/04/25 08:27:58;;;;;;;16.67;8.32;;;7.30;77.80;;;;;;5033022;28;20131;-58
2021/04/25 08:30:24;;;;;;;15.88;8.30;;;7.30;78.40;;;;;;5031093;28;20045;-58
2021/04/25 08:32:50;;;;;;;15.23;9.05;;;7.30;77.10;;;;;;5032840;28;20389;-56
2021/04/25 08:35:18;;;;;;;11.02;7.40;;;7.30;78.00;;;;;;5033300;28;20040;-60
2021/04/25 08:37:44;;;;;;;12.82;7.05;;;7.00;78.60;;;;;;5027433;28;20049;-59
2021/04/25 08:40:10;;;;;;;13.68;6.97;;;7.10;77.10;;;;;;5034024;28;20039;-56
2021/04/25 08:42:36;;;;;;;12.63;7.45;;;7.20;77.40;;;;;;5033119;28;20017;-55
2021/04/25 08:45:05;;;;;;;15.40;7.85;;;7.10;77.60;;;;;;5033419;28;20048;-61
2021/04/25 08:47:31;;;;;;;17.00;7.38;;;7.30;77.40;;;;;;5033561;28;20025;-58
2021/04/25 08:49:59;;;;;;;13.15;7.05;;;7.60;76.10;;;;;;5034157;28;20116;-60
2021/04/25 08:52:25;;;;;;;17.63;6.50;;;7.80;75.40;;;;;;5031024;28;20038;-59
2021/04/25 08:54:53;;;;;;;9.88;5.50;;;7.90;75.10;;;;;;5034554;28;20030;-59
2021/04/25 08:57:18;;;;;;;12.27;5.72;;;7.70;72.40;;;;;;5032693;28;20508;-58
2021/04/25 08:59:44;;;;;;;12.65;5.68;;;7.70;73.80;;;;;;5039929;28;20118;-57
2021/04/25 09:02:09;;;;;;;10.88;5.43;;;7.90;72.40;;;;;;5024503;28;20109;-60
2021/04/25 09:04:35;;;;;;;12.02;5.68;;;8.00;72.30;;;;;;5034681;28;20041;-58
2021/04/25 09:07:12;;;;;;;12.27;5.82;;;8.00;72.40;;;;;;5014286;28;20088;-61
2021/04/25 09:09:42;;;;;;;9.70;5.05;;;8.10;71.80;;;;;;5023456;28;20682;-59
2021/04/25 09:12:09;;;;;;;10.65;5.15;;;8.00;71.10;;;;;;5019736;28;20066;-60
2021/04/25 09:14:38;;;;;;;11.68;5.88;;;8.10;71.60;;;;;;5029042;28;20041;-62
2021/04/25 09:17:05;;;;;;;17.38;5.70;;;8.30;71.50;;;;;;5019816;28;20088;-57
2021/04/25 09:19:47;;;;;;;10.40;5.72;;;8.60;71.00;;;;;;5021233;28;20041;-59
2021/04/25 09:22:13;;;;;;;9.90;5.50;;;8.70;69.10;;;;;;5028210;28;20041;-56
2021/04/25 09:24:39;;;;;;;8.05;5.00;;;8.50;69.50;;;;;;5033239;28;20045;-54
2021/04/25 09:27:05;;;;;;;11.32;5.47;;;8.30;71.00;;;;;;5017644;28;20037;-59
2021/04/25 09:29:51;;;;;;;9.77;5.13;;;8.30;71.40;;;;;;5031717;28;20637;-59
2021/04/25 09:32:22;;;;;;;8.52;4.85;;;8.40;70.70;;;;;;5035873;28;20045;-61
2021/04/25 09:34:48;;;;;;;8.30;5.45;;;8.20;70.80;;;;;;5041378;28;20485;-58
2021/04/25 09:37:19;;;;;;;10.00;4.82;;;8.30;71.10;;;;;;5017270;28;20394;-59
2021/04/25 09:40:03;;;;;;;14.07;5.70;;;8.20;70.00;;;;;;5035372;28;20433;-60
2021/04/25 09:42:30;;;;;;;8.43;5.25;;;8.00;70.50;;;;;;5031239;28;20069;-59
2021/04/25 09:44:56;;;;;;;9.80;4.75;;;8.40;71.20;;;;;;5035978;28;20041;-58
2021/04/25 09:47:32;;;;;;;8.38;4.80;;;8.80;69.20;;;;;;5021099;28;20083;-58
2021/04/25 09:50:00;;;;;;;8.32;5.07;;;8.90;68.30;;;;;;5036784;28;20114;-58
2021/04/25 09:52:26;;;;;;;16.67;5.10;;;9.10;68.70;;;;;;5037554;28;20175;-57
2021/04/25 09:54:51;;;;;;;11.02;4.93;;;9.20;67.70;;;;;;5030255;28;20089;-58
2021/04/25 09:57:33;;;;;;;10.40;4.47;;;9.20;67.30;;;;;;5037811;28;20037;-59
2021/04/25 09:59:59;;;;;;;9.63;4.60;;;9.50;66.90;;;;;;5046238;28;20539;-58
2021/04/25 10:02:25;;;;;;;7.88;4.25;;;9.40;66.10;;;;;;5029395;28;20052;-58
2021/04/25 10:04:51;;;;;;;8.73;5.00;;;9.60;66.00;;;;;;5041474;28;20784;-58
2021/04/25 10:07:17;;;;;;;6.93;4.78;;;9.60;65.30;;;;;;5020893;28;20041;-61
2021/04/25 10:09:42;;;;;;;8.55;5.25;;;9.60;65.40;;;;;;5036561;28;20032;-60
2021/04/25 10:12:08;;;;;;;9.35;4.68;;;9.60;66.50;;;;;;5039245;28;20022;-59
2021/04/25 10:14:34;;;;;;;9.50;5.05;;;9.60;65.80;;;;;;5028693;28;20061;-58
2021/04/25 10:17:02;;;;;;;9.98;4.78;;;9.70;65.20;;;;;;5027817;28;20029;-57
2021/04/25 10:19:28;;;;;;;8.55;4.97;;;9.70;66.60;;;;;;5026178;28;20494;-60
2021/04/25 10:21:54;;;;;;;8.43;5.00;;;9.90;65.80;;;;;;5034737;28;20036;-60
2021/04/25 10:24:21;;;;;;;12.95;5.28;;;9.80;65.20;;;;;;5034492;28;20025;-59
2021/04/25 10:27:08;;;;;;;11.05;4.80;;;9.50;65.20;;;;;;5029272;28;20494;-61
2021/04/25 10:29:57;;;;;;;10.77;5.28;;;9.80;65.80;;;;;;5036690;28;20408;-59
2021/04/25 10:32:23;;;;;;;8.60;4.90;;;10.00;65.20;;;;;;5033164;28;20128;-60
2021/04/25 10:35:08;;;;;;;11.52;6.05;;;9.90;65.20;;;;;;5038516;28;20033;-58
2021/04/25 10:37:38;;;;;;;8.95;5.13;;;9.50;65.00;;;;;;5016536;28;20053;-59
2021/04/25 10:40:19;;;;;;;10.50;5.95;;;9.40;65.80;;;;;;5045837;28;20037;-58
2021/04/25 10:43:03;;;;;;;13.57;6.28;;;9.30;65.60;;;;;;5037544;28;20517;-60
2021/04/25 10:45:58;;;;;;;9.55;5.18;;;9.20;66.00;;;;;;5029957;28;20087;-62
2021/04/25 10:48:27;;;;;;;13.93;6.15;;;9.50;64.60;;;;;;5021131;28;20037;-59
2021/04/25 10:50:55;;;;;;;9.32;6.03;;;9.50;65.20;;;;;;5051837;28;20036;-59
2021/04/25 10:53:24;;;;;;;10.38;5.95;;;9.20;65.70;;;;;;5041296;28;20044;-59
2021/04/25 10:56:11;;;;;;;14.30;6.38;;;9.00;65.80;;;;;;5036847;28;20060;-57
2021/04/25 10:58:36;;;;;;;9.75;5.88;;;9.00;65.70;;;;;;5032606;28;20120;-60
2021/04/25 11:01:02;;;;;;;8.55;5.82;;;8.90;65.90;;;;;;5034102;28;20525;-55
2021/04/25 11:03:34;;;;;;;10.18;5.55;;;9.10;65.60;;;;;;5044418;28;20664;-59
2021/04/25 11:06:00;;;;;;;8.95;5.95;;;9.10;64.90;;;;;;5022143;28;20064;-61
2021/04/25 11:08:32;;;;;;;13.88;6.43;;;9.10;64.80;;;;;;5032593;28;20045;-59
2021/04/25 11:11:07;;;;;;;12.52;6.70;;;9.00;65.80;;;;;;5034355;28;20037;-59
2021/04/25 11:13:32;;;;;;;;;;;8.80;67.00;;;;;;5033318;28;20040;-58
2021/04/25 11:16:05;;;;;;;10.90;5.97;;;8.80;67.00;;;;;;5028204;28;19909;-59
2021/04/25 11:18:59;;;;;;;8.65;5.85;;;8.60;67.20;;;;;;5029780;28;20087;-59
2021/04/25 11:24:01;;;;;;;12.55;5.47;;;8.80;67.60;;;;;;5028578;28;20113;-59
2021/04/25 11:26:42;;;;;;;9.80;5.43;;;8.90;66.90;;;;;;5030502;28;20112;-58
2021/04/25 11:29:15;;;;;;;14.98;4.90;;;8.70;67.40;;;;;;5038273;28;20497;-59
2021/04/25 11:31:46;;;;;;;10.23;5.60;;;8.50;67.60;;;;;;5014982;28;20034;-60
2021/04/25 11:34:33;;;;;;;14.43;6.55;;;8.60;68.20;;;;;;5020322;28;20121;-58
2021/04/25 11:37:20;;;;;;;10.35;5.70;;;8.60;67.10;;;;;;5014002;28;20042;-59
2021/04/25 11:39:52;;;;;;;11.40;5.82;;;8.60;67.30;;;;;;5029616;28;20389;-61
2021/04/25 11:42:29;;;;;;;11.55;5.57;;;8.70;67.10;;;;;;5030405;28;20040;-58
2021/04/25 11:44:57;;;;;;;8.82;5.43;;;8.90;67.00;;;;;;5023288;28;20025;-60
2021/04/25 11:47:24;;;;;;;9.13;5.57;;;9.00;65.80;;;;;;5026414;28;20064;-58
2021/04/25 11:49:54;;;;;;;10.40;5.55;;;9.10;66.10;;;;;;5021843;28;20045;-60
2021/04/25 11:52:34;;;;;;;8.90;6.10;;;8.80;65.70;;;;;;5036783;28;20036;-58
2021/04/25 11:55:13;;;;;;;8.13;6.07;;;8.90;65.60;;;;;;5036360;28;20059;-59
2021/04/25 11:57:41;;;;;;;13.57;7.15;;;9.20;64.90;;;;;;5028340;28;20061;-58
2021/04/25 12:00:16;;;;;;;12.13;7.50;;;8.90;66.50;;;;;;5035816;28;20084;-57
2021/04/25 12:02:44;;;;;;;11.32;7.18;;;9.10;65.20;;;;;;5038244;28;20108;-58
2021/04/25 12:05:12;;;;;;;15.57;7.30;;;9.40;64.40;;;;;;5036572;28;20017;-59
2021/04/25 12:07:44;;;;;;;11.10;7.68;;;9.30;64.00;;;;;;5027943;28;20351;-59
2021/04/25 12:10:19;;;;;;;11.15;7.90;;;9.30;63.50;;;;;;5030409;28;20562;-59
2021/04/25 12:13:02;;;;;;;16.77;8.10;;;9.30;62.70;;;;;;5042643;28;20422;-58
2021/04/25 12:15:30;;;;;;;13.57;8.02;;;9.50;63.00;;;;;;5035142;28;20041;-58
2021/04/25 12:17:57;;;;;;;14.15;7.88;;;9.60;61.90;;;;;;5022573;28;20036;-57
2021/04/25 12:20:24;;;;;;;11.55;6.88;;;9.60;61.00;;;;;;5027291;28;20064;-60
2021/04/25 12:22:50;;;;;;;11.45;6.53;;;9.70;60.40;;;;;;5030432;28;20045;-61
2021/04/25 12:25:16;;;;;;;8.77;6.25;;;9.70;61.00;;;;;;5024942;28;20133;-57
2021/04/25 12:27:48;;;;;;;8.68;6.10;;;9.40;61.30;;;;;;5040008;28;20033;-58
2021/04/25 12:30:20;;;;;;;9.55;5.82;;;9.20;62.00;;;;;;5035725;28;20029;-58
2021/04/25 12:32:46;;;;;;;10.10;4.95;;;9.00;62.80;;;;;;5044322;28;20036;-54
2021/04/25 12:35:12;;;;;;;14.88;7.03;;;9.10;62.20;;;;;;5033085;28;20044;-56
2021/04/25 12:37:42;;;;;;;11.52;5.85;;;9.20;61.80;;;;;;5011633;28;20041;-54
2021/04/25 12:40:32;;;;;;;10.23;5.47;;;9.20;61.10;;;;;;5026790;28;20041;-60
2021/04/25 12:43:13;;;;;;;10.13;4.53;;;9.10;61.00;;;;;;5029559;28;20029;-57
2021/04/25 12:45:41;;;;;;;6.65;3.85;;;9.40;59.70;;;;;;5036690;28;20044;-58
2021/04/25 12:48:34;;;;;;;6.53;4.80;;;9.60;59.20;;;;;;5030152;28;20026;-59
2021/04/25 12:51:10;;;;;;;6.00;4.22;;;9.70;58.80;;;;;;5027617;28;20521;-58
2021/04/25 12:53:43;;;;;;;7.93;4.20;;;9.80;58.60;;;;;;5025451;28;20030;-60
2021/04/25 12:56:44;;;;;;;10.35;4.90;;;10.00;58.20;;;;;;5029312;28;20037;-59